Omega, GA

2:13 PM EDT on May 25, 2015 (GMT -0400)
Myers | | Change Station
CLOSE
Current Station
Airport
Location: Henry Tift Myers AP, Tifton,,
Elevation: 354 ft
Nearby Weather Stations

Elev 354 ft 31.43 °N, 83.49 °W | Updated 23 minutes ago

Partly Cloudy
Partly Cloudy
88 °F
Feels Like 88 °F
N
8
Wind Variable Wind from SE

Today
High -- | Low -- °F
--% Chance of Precip.
Yesterday
High -- | Low -- °F
Precip. -- in
6:32 AM 8:29 PM
Waxing Crescent, 50% visible
Pressure 30.19 in
Visibility 10.0 miles
Clouds Scattered Clouds 4400 ft
Scattered Clouds 5000 ft
Heat Index 88 °F
Dew Point 62 °F
Humidity 42%
Rainfall 0.00 in
Snow Depth Not available.
UV 11 out of 12
Pollen 3.40 out of 12
Air Quality Not available.
Flu Activity Sporadic
METAR KTMA 251750Z AUTO 14007KT 10SM SCT044 SCT050 31/17 A3019 RMK AO2 LTG DSNT SE T03090168

More Conditions Fewer Conditions

Pressure 30.19 in
Visibility 10.0 miles
Clouds Scattered Clouds 4400 ft
Scattered Clouds 5000 ft
Heat Index 88 °F
Dew Point 62 °F
Humidity 42%
Rainfall 0.00 in
Snow Depth Not available.
UV 11 out of 12
Pollen 3.40 out of 12
Air Quality Not available.
Flu Activity Sporadic
METAR KTMA 251750Z AUTO 14007KT 10SM SCT044 SCT050 31/17 A3019 RMK AO2 LTG DSNT SE T03090168

More Conditions Fewer Conditions

10-Day Weather Forecast

Almanac

Astronomy

May. 25, 2015 Rise Set
Actual Time
Civil Twilight
Nautical Twilight
Astronomical Twilight
Moon
Length of Visible Light
Length of Day
Tomorrow will be .
, % of the Moon is Illuminated

Today's Extremes

State Highs State Lows

Community

WunderPhotos

Upload Photos

1,824,077 photos uploaded!

WunderBlogs® & News

Nearby

Air Quality

  Air Quality AQ Index Pollutant
Not available.

Snow Depth

Station Depth Elevation

Earthquake Activity

City Distance Mag. Time & Date
Minimum magnitude displayed is 2.5.

Coastal Water Temperatures

Place Temperature

Stations

Nearby Weather Stations

Station Location Temp. Windchill Dew Point Humidity Wind Precip. Elev Updated Type